Date,TemperatureHighF,TemperatureAvgF,TemperatureLowF,DewpointHighF,DewpointAvgF,DewpointLowF,HumidityHigh,HumidityAvg,HumidityLow,PressureMaxIn,PressureMinIn,WindSpeedMaxMPH,WindSpeedAvgMPH,GustSpeedMaxMPH,PrecipitationSumIn
2013-1-1,24,5,-9,12,-1,-13,92,76,57,30.73,30.32,12,4,18,0.00
2013-1-2,24,2,-12,10,-4,-17,84,75,51,30.79,30.64,12,3,14,0.00
2013-1-3,29,4,-11,9,-4,-16,92,71,38,30.91,30.78,7,2,10,0.00
2013-1-4,23,5,-10,10,-3,-14,84,72,49,30.83,30.67,11,3,14,0.00
2013-1-5,29,7,-10,10,-2,-15,92,71,41,30.90,30.75,8,2,11,0.01
2013-1-6,40,21,-5,12,3,-10,86,53,27,30.88,30.31,11,4,16,0.00
2013-1-7,40,23,5,14,7,0,79,54,28,30.31,30.09,11,3,15,0.00
2013-1-8,37,20,3,20,9,-4,89,64,43,30.59,30.23,17,6,21,0.00
2013-1-9,20,13,7,14,8,3,88,79,69,30.61,30.41,3,2,14,0.00
2013-1-10,40,27,10,25,14,4,79,60,35,30.41,29.79,11,4,15,0.00
2013-1-11,33,13,-12,25,6,-17,90,75,55,30.22,29.65,15,6,28,0.00
2013-1-12,18,-2,-16,6,-10,-21,92,72,48,30.56,30.22,8,2,28,0.01
2013-1-13,16,5,-14,8,0,-20,85,78,62,30.58,30.41,7,2,10,0.00
2013-1-14,17,6,-15,10,0,-20,95,75,51,30.54,30.33,12,4,16,0.03
2013-1-15,22,1,-19,5,-8,-25,80,67,45,30.91,30.54,13,4,16,0.00
2013-1-16,26,7,-7,10,0,-11,85,72,52,30.95,30.80,9,2,13,0.00
2013-1-17,38,15,-1,19,7,-5,87,72,43,30.98,30.78,6,2,9,0.00
2013-1-18,38,18,3,20,10,0,87,74,47,30.78,30.59,9,2,13,0.00
2013-1-19,37,16,1,18,8,-4,87,73,43,30.77,30.64,9,2,10,0.00
2013-1-20,36,16,-1,18,8,-5,87,72,41,30.76,30.57,14,4,17,0.01
2013-1-21,37,17,1,20,10,-3,94,74,45,30.70,30.59,10,2,10,0.00
2013-1-22,41,19,4,20,10,0,92,69,35,30.71,30.59,16,3,18,0.01
2013-1-23,47,19,4,24,9,-2,84,68,31,30.75,30.61,12,2,14,0.00
2013-1-24,47,34,21,30,21,14,86,62,33,30.62,30.39,9,2,10,0.00
2013-1-25,43,36,32,36,32,30,94,88,77,30.41,30.24,3,0,5,0.02
2013-1-26,40,35,32,37,33,30,94,92,85,30.24,29.91,6,1,8,0.98
2013-1-27,42,35,32,38,33,30,100,91,78,30.04,29.91,8,1,13,0.54
2013-1-28,34,29,20,32,27,17,98,92,88,29.91,29.80,9,3,13,0.30
2013-1-29,24,16,8,18,12,5,91,83,66,30.34,29.86,15,8,20,0.00
2013-1-30,27,19,8,21,13,3,90,79,62,30.55,30.34,11,4,14,0.00
2013-1-31,38,28,15,25,21,12,92,74,54,30.52,30.39,11,4,13,0.15
2013-2-1,40,26,8,25,17,5,90,72,50,30.53,30.42,11,4,13,0.01
2013-2-2,41,26,10,25,16,6,89,68,35,30.59,30.52,10,3,13,0.00
2013-2-3,43,27,15,27,21,11,92,78,48,30.54,30.23,10,3,12,0.00
2013-2-4,40,28,10,29,20,7,92,74,46,30.30,30.22,13,5,15,0.01
2013-2-5,45,27,12,27,17,8,87,67,37,30.30,30.15,6,2,9,0.00
2013-2-6,44,29,16,28,21,13,90,74,46,30.19,30.08,9,2,11,0.01
2013-2-7,45,31,14,24,19,10,87,63,36,30.29,30.17,11,3,15,0.00
2013-2-8,49,38,24,24,18,11,71,45,25,30.18,29.70,13,6,19,0.00
2013-2-9,27,24,20,22,20,14,91,85,70,29.95,29.64,12,2,19,0.10
2013-2-10,27,22,20,23,19,18,92,89,81,30.10,29.95,8,2,12,0.18
2013-2-11,25,17,2,19,13,-2,91,83,67,30.31,30.11,8,2,9,0.07
2013-2-12,26,12,-7,15,6,-11,88,74,57,30.57,30.31,15,7,19,0.00
2013-2-13,34,15,-4,22,8,-8,88,75,59,30.58,30.42,17,6,19,0.00
2013-2-14,9,6,4,6,3,0,88,86,84,30.51,30.46,2,1,9,0.00